createdAt,value
2019-03-22T00:00:29.883Z,22.07
2019-03-22T00:02:58.519Z,25.30
2019-03-22T00:05:27.120Z,23.37
2019-03-22T00:07:55.734Z,21.27
2019-03-22T00:10:24.339Z,23.53
2019-03-22T00:12:53.011Z,23.97
2019-03-22T00:15:21.611Z,21.37
2019-03-22T00:17:50.216Z,23.90
2019-03-22T00:20:18.802Z,24.80
2019-03-22T00:22:47.487Z,24.43
2019-03-22T00:25:16.086Z,19.63
2019-03-22T00:27:44.695Z,21.37
2019-03-22T00:30:13.431Z,22.90
2019-03-22T00:32:42.030Z,20.60
2019-03-22T00:35:10.757Z,20.43
2019-03-22T00:37:39.470Z,21.20
2019-03-22T00:40:08.200Z,28.50
2019-03-22T00:42:36.812Z,23.87
2019-03-22T00:45:05.994Z,23.67
2019-03-22T00:47:34.607Z,21.37
2019-03-22T00:50:03.309Z,19.70
2019-03-22T00:52:31.900Z,21.13
2019-03-22T00:55:00.516Z,22.00
2019-03-22T00:57:29.130Z,22.37
2019-03-22T00:59:57.766Z,21.97
2019-03-22T01:02:26.518Z,23.27
2019-03-22T01:04:55.114Z,29.77
2019-03-22T01:07:23.711Z,23.93
2019-03-22T01:09:52.293Z,21.30
2019-03-22T01:12:21.391Z,26.73
2019-03-22T01:14:49.989Z,18.37
2019-03-22T01:17:18.612Z,19.57
2019-03-22T01:19:47.192Z,22.73
2019-03-22T01:22:15.779Z,25.23
2019-03-22T01:24:44.383Z,23.77
2019-03-22T01:27:12.978Z,23.00
2019-03-22T01:29:41.567Z,21.63
2019-03-22T01:32:10.188Z,22.47
2019-03-22T01:34:38.831Z,20.43
2019-03-22T01:37:07.443Z,22.47
2019-03-22T01:39:36.422Z,22.53
2019-03-22T01:42:05.164Z,19.27
2019-03-22T01:44:33.815Z,22.27
2019-03-22T01:47:02.414Z,24.13
2019-03-22T01:49:31.002Z,22.10
2019-03-22T01:51:59.593Z,21.80
2019-03-22T01:54:28.208Z,25.47
2019-03-22T01:56:58.031Z,20.73
2019-03-22T01:59:26.807Z,24.33
2019-03-22T02:01:55.409Z,24.80
2019-03-22T02:04:23.991Z,18.90
2019-03-22T02:06:52.689Z,21.57
2019-03-22T02:09:21.271Z,25.60
2019-03-22T02:11:49.865Z,21.10
2019-03-22T02:14:18.483Z,23.17
2019-03-22T02:16:47.085Z,22.03
2019-03-22T02:19:15.690Z,21.27
2019-03-22T02:21:44.692Z,22.67
2019-03-22T02:24:13.273Z,21.00
2019-03-22T02:26:41.862Z,20.30
2019-03-22T02:29:10.461Z,20.17
2019-03-22T02:31:39.067Z,19.77
2019-03-22T02:34:07.659Z,22.67
2019-03-22T02:36:36.239Z,19.83
2019-03-22T02:39:05.996Z,22.80
2019-03-22T02:41:34.606Z,25.70
2019-03-22T02:44:03.212Z,19.07
2019-03-22T02:46:31.807Z,22.33
2019-03-22T02:49:00.412Z,21.20
2019-03-22T02:51:29.017Z,24.17
2019-03-22T02:53:57.621Z,25.00
2019-03-22T02:56:26.260Z,21.93
2019-03-22T02:58:55.068Z,18.93
2019-03-22T03:01:24.207Z,21.70
2019-03-22T03:03:53.515Z,19.77
2019-03-22T03:06:22.139Z,20.43
2019-03-22T03:08:50.763Z,20.23
2019-03-22T03:11:19.428Z,21.53
2019-03-22T03:13:48.067Z,20.67
2019-03-22T03:16:16.667Z,20.57
2019-03-22T03:18:45.452Z,19.03
2019-03-22T03:21:14.048Z,20.60
2019-03-22T03:23:42.664Z,22.37
2019-03-22T03:26:11.274Z,25.73
2019-03-22T03:28:40.283Z,19.90
2019-03-22T03:31:08.895Z,26.47
2019-03-22T03:33:37.487Z,18.13
2019-03-22T03:36:06.566Z,23.17
2019-03-22T03:38:35.328Z,16.97
2019-03-22T03:41:03.943Z,22.20
2019-03-22T03:43:32.689Z,22.97
2019-03-22T03:46:01.380Z,20.37
2019-03-22T03:48:29.978Z,21.93
2019-03-22T03:50:58.585Z,20.33
2019-03-22T03:53:27.187Z,22.23
2019-03-22T03:55:55.787Z,21.40
2019-03-22T03:58:24.390Z,22.27
2019-03-22T04:00:52.989Z,22.07
2019-03-22T04:03:21.612Z,24.23
2019-03-22T04:05:50.303Z,20.37
2019-03-22T04:08:18.931Z,19.30
2019-03-22T04:10:47.542Z,20.40
2019-03-22T04:13:16.171Z,22.50
2019-03-22T04:15:44.940Z,17.07
2019-03-22T04:18:13.550Z,23.73
2019-03-22T04:20:42.156Z,20.73
2019-03-22T04:23:10.764Z,21.80
2019-03-22T04:25:39.340Z,25.70
2019-03-22T04:28:08.043Z,24.27
2019-03-22T04:30:36.703Z,18.53
2019-03-22T04:33:06.783Z,20.93
2019-03-22T04:35:35.570Z,22.47
2019-03-22T04:38:04.271Z,17.90
2019-03-22T04:40:32.868Z,21.73
2019-03-22T04:43:01.576Z,19.43
2019-03-22T04:45:31.513Z,21.23
2019-03-22T04:48:02.757Z,25.93
2019-03-22T04:50:33.107Z,21.80
2019-03-22T04:53:03.121Z,23.97
2019-03-22T04:55:32.328Z,24.73
2019-03-22T04:58:02.715Z,22.20
2019-03-22T05:00:31.930Z,20.50
2019-03-22T05:03:00.936Z,20.20
2019-03-22T05:05:30.082Z,18.20
2019-03-22T05:07:59.459Z,22.37
2019-03-22T05:10:28.687Z,18.47
2019-03-22T05:12:59.156Z,20.50
2019-03-22T05:15:29.239Z,22.33
2019-03-22T05:17:58.294Z,20.90
2019-03-22T05:20:27.352Z,22.47
2019-03-22T05:22:56.915Z,17.97
2019-03-22T05:25:28.406Z,21.03
2019-03-22T05:27:58.383Z,19.90
2019-03-22T05:30:49.071Z,22.27
2019-03-22T05:33:18.116Z,23.33
2019-03-22T05:35:47.151Z,18.77
2019-03-22T05:38:16.199Z,25.47
2019-03-22T05:40:45.216Z,22.33
2019-03-22T05:43:14.229Z,23.90
2019-03-22T05:45:43.256Z,23.07
2019-03-22T05:48:11.868Z,23.43
2019-03-22T05:50:40.485Z,23.47
2019-03-22T05:53:09.132Z,23.40
2019-03-22T05:55:37.774Z,31.03
2019-03-22T05:58:06.379Z,20.33
2019-03-22T06:00:35.006Z,25.30
2019-03-22T06:03:03.620Z,23.53
2019-03-22T06:05:32.225Z,24.73
2019-03-22T06:08:00.854Z,21.83
2019-03-22T06:10:29.538Z,23.70
2019-03-22T06:12:58.104Z,24.20
2019-03-22T06:15:26.710Z,23.27
2019-03-22T06:17:55.335Z,21.53
2019-03-22T06:20:23.943Z,23.13
2019-03-22T06:22:52.569Z,20.60
2019-03-22T06:25:21.218Z,21.37
2019-03-22T06:27:49.826Z,24.03
2019-03-22T06:30:18.443Z,23.67
2019-03-22T06:32:47.056Z,19.50
2019-03-22T06:35:15.662Z,21.67
2019-03-22T06:37:44.259Z,24.37
2019-03-22T06:40:12.960Z,22.50
2019-03-22T06:42:41.566Z,22.10
2019-03-22T06:45:10.283Z,23.53
2019-03-22T06:47:38.991Z,23.20
2019-03-22T06:50:07.706Z,24.33
2019-03-22T06:52:36.406Z,23.87
2019-03-22T06:55:05.267Z,26.33
2019-03-22T06:57:33.899Z,24.03
2019-03-22T07:00:06.712Z,21.50
2019-03-22T07:02:32.883Z,28.60
2019-03-22T07:05:01.487Z,23.70
2019-03-22T07:07:30.109Z,25.87
2019-03-22T07:09:58.720Z,23.77
2019-03-22T07:12:27.419Z,23.00
2019-03-22T07:14:56.020Z,22.67
2019-03-22T07:17:24.648Z,23.73
2019-03-22T07:19:53.237Z,23.87
2019-03-22T07:22:21.834Z,22.90
2019-03-22T07:24:50.430Z,23.63
2019-03-22T07:27:19.052Z,21.23
2019-03-22T07:29:47.693Z,28.17
2019-03-22T07:32:16.297Z,24.23
2019-03-22T07:34:44.938Z,27.50
2019-03-22T07:37:13.639Z,25.80
2019-03-22T07:39:42.246Z,25.53
2019-03-22T07:42:10.854Z,26.50
2019-03-22T07:44:39.464Z,25.00
2019-03-22T07:47:08.079Z,25.40
2019-03-22T07:49:36.690Z,27.53
2019-03-22T07:52:05.395Z,22.97
2019-03-22T07:54:33.977Z,24.73
2019-03-22T07:57:02.687Z,26.13
2019-03-22T07:59:31.327Z,22.50
2019-03-22T08:01:59.956Z,30.73
2019-03-22T08:04:28.560Z,23.93
2019-03-22T08:06:57.154Z,24.60
2019-03-22T08:09:25.789Z,32.50
2019-03-22T08:11:54.391Z,25.57
2019-03-22T08:14:22.991Z,24.13
2019-03-22T08:16:51.599Z,24.33
2019-03-22T08:19:20.197Z,29.23
2019-03-22T08:21:48.784Z,26.50
2019-03-22T08:24:17.375Z,26.50
2019-03-22T08:26:45.972Z,30.63
2019-03-22T08:29:14.566Z,25.80
2019-03-22T08:31:43.213Z,28.73
2019-03-22T08:34:11.830Z,27.93
2019-03-22T08:36:40.427Z,28.37
2019-03-22T08:39:09.550Z,30.00
2019-03-22T08:41:38.260Z,25.70
2019-03-22T08:44:06.815Z,32.40
2019-03-22T08:46:35.455Z,24.53
2019-03-22T08:49:04.214Z,30.40
2019-03-22T08:51:32.858Z,28.77
2019-03-22T08:54:01.474Z,28.60
2019-03-22T08:56:30.055Z,27.97
2019-03-22T08:58:58.642Z,26.50
2019-03-22T09:01:27.267Z,23.50
2019-03-22T09:03:55.910Z,22.63
2019-03-22T09:06:25.076Z,26.10
2019-03-22T09:08:53.724Z,29.07
2019-03-22T09:11:22.426Z,26.60
2019-03-22T09:13:53.670Z,27.53
2019-03-22T09:16:21.379Z,27.20
2019-03-22T09:18:49.955Z,26.33
2019-03-22T09:21:18.559Z,27.43
2019-03-22T09:23:47.384Z,29.20
2019-03-22T09:26:16.514Z,31.63
2019-03-22T09:28:45.094Z,37.20
2019-03-22T09:31:13.740Z,27.17
2019-03-22T09:33:42.319Z,28.13
2019-03-22T09:36:10.998Z,28.93
2019-03-22T09:38:39.602Z,34.03
2019-03-22T09:41:08.213Z,34.00
2019-03-22T09:43:36.954Z,27.67
2019-03-22T09:46:06.152Z,26.57
2019-03-22T09:48:35.541Z,32.27
2019-03-22T09:51:04.909Z,28.30
2019-03-22T09:53:34.045Z,24.87
2019-03-22T09:56:03.030Z,27.33
2019-03-22T09:58:31.664Z,31.17
2019-03-22T10:01:00.267Z,31.47
2019-03-22T10:03:28.920Z,30.43
2019-03-22T10:05:57.766Z,25.07
2019-03-22T10:08:26.416Z,34.13
2019-03-22T10:10:55.019Z,41.20
2019-03-22T10:13:23.663Z,27.17
2019-03-22T10:15:52.256Z,40.00
2019-03-22T10:18:20.916Z,29.00
2019-03-22T10:20:49.560Z,35.43
2019-03-22T10:23:18.172Z,28.57
2019-03-22T10:25:46.762Z,35.70
2019-03-22T10:28:15.373Z,31.90
2019-03-22T10:30:43.982Z,39.50
2019-03-22T10:33:22.025Z,36.27
2019-03-22T10:35:42.822Z,30.57
2019-03-22T10:38:16.483Z,33.77
2019-03-22T10:40:42.120Z,37.23
2019-03-22T10:43:10.818Z,29.00
2019-03-22T10:45:39.555Z,32.17
2019-03-22T10:48:08.628Z,29.40
2019-03-22T10:50:37.356Z,35.27
2019-03-22T10:53:06.037Z,31.20
2019-03-22T10:55:35.677Z,38.53
2019-03-22T10:58:04.622Z,30.53
2019-03-22T11:00:33.323Z,31.43
2019-03-22T11:03:01.947Z,32.00
2019-03-22T11:05:30.547Z,30.53
2019-03-22T11:07:59.953Z,31.43
2019-03-22T11:10:28.703Z,32.97
2019-03-22T11:12:57.820Z,33.47
2019-03-22T11:15:26.682Z,29.13
2019-03-22T11:17:55.292Z,36.47
2019-03-22T11:20:23.986Z,34.27
2019-03-22T11:22:52.606Z,33.90
2019-03-22T11:25:21.219Z,37.90
2019-03-22T11:27:49.828Z,32.70
2019-03-22T11:30:18.667Z,30.20
2019-03-22T11:32:47.427Z,31.77
2019-03-22T11:35:16.334Z,33.03
2019-03-22T11:37:45.398Z,33.30
2019-03-22T11:40:14.967Z,30.70
2019-03-22T11:42:43.624Z,34.53
2019-03-22T11:45:13.592Z,31.93
2019-03-22T11:47:42.219Z,31.33
2019-03-22T11:50:11.305Z,30.30
2019-03-22T11:52:40.439Z,31.70
2019-03-22T11:55:09.841Z,30.03
2019-03-22T11:57:38.547Z,33.27
2019-03-22T12:00:09.922Z,32.87
2019-03-22T12:02:38.523Z,32.80
2019-03-22T12:05:07.739Z,31.40
2019-03-22T12:07:36.663Z,29.47
2019-03-22T12:10:06.202Z,28.67
2019-03-22T12:12:35.163Z,35.90
2019-03-22T12:15:04.854Z,32.50
2019-03-22T12:17:33.682Z,29.77
2019-03-22T12:20:02.661Z,31.90
2019-03-22T12:22:31.275Z,30.43
2019-03-22T12:24:59.988Z,30.83
2019-03-22T12:27:36.287Z,33.17
2019-03-22T12:29:58.859Z,36.20
2019-03-22T12:32:32.213Z,38.03
2019-03-22T12:35:00.434Z,39.33
2019-03-22T12:37:29.035Z,33.67
2019-03-22T12:39:57.637Z,34.50
2019-03-22T12:42:26.300Z,39.90
2019-03-22T12:44:54.895Z,31.00
2019-03-22T12:47:23.579Z,33.63
2019-03-22T12:49:52.180Z,35.03
2019-03-22T12:52:20.777Z,32.60
2019-03-22T12:54:49.386Z,31.43
2019-03-22T12:57:18.083Z,33.37
2019-03-22T12:59:46.691Z,35.37
2019-03-22T13:02:15.282Z,37.67
2019-03-22T13:04:43.867Z,32.63
2019-03-22T13:07:12.475Z,34.90
2019-03-22T13:09:41.194Z,34.43
2019-03-22T13:12:09.834Z,35.60
2019-03-22T13:14:38.490Z,33.30
2019-03-22T13:17:07.136Z,30.33
2019-03-22T13:19:35.746Z,29.50
2019-03-22T13:22:04.620Z,31.63
2019-03-22T13:24:33.231Z,35.53
2019-03-22T13:27:01.826Z,29.87
2019-03-22T13:29:30.467Z,34.90
2019-03-22T13:31:59.102Z,32.97
2019-03-22T13:34:27.824Z,28.47
2019-03-22T13:36:56.564Z,29.60
2019-03-22T13:39:25.200Z,24.23
2019-03-22T13:41:53.837Z,29.07
2019-03-22T13:44:22.401Z,27.57
2019-03-22T13:46:51.151Z,27.57
2019-03-22T13:49:19.752Z,28.17
2019-03-22T13:51:48.355Z,26.90
2019-03-22T13:54:16.952Z,28.63
2019-03-22T13:56:45.570Z,26.47
2019-03-22T13:59:14.251Z,27.07
2019-03-22T14:01:42.866Z,22.97
2019-03-22T14:04:11.871Z,24.40
2019-03-22T14:06:40.875Z,22.77
2019-03-22T14:09:09.909Z,25.30
2019-03-22T14:11:39.312Z,25.07
2019-03-22T14:14:08.633Z,25.37
2019-03-22T14:16:37.816Z,27.77
2019-03-22T14:19:07.186Z,25.87
2019-03-22T14:21:36.508Z,28.17
2019-03-22T14:24:05.463Z,28.60
2019-03-22T14:26:34.492Z,26.23
2019-03-22T14:29:03.531Z,27.30
2019-03-22T14:31:32.123Z,25.80
2019-03-22T14:34:00.746Z,24.60
2019-03-22T14:36:29.343Z,25.87
2019-03-22T14:38:57.940Z,24.93
2019-03-22T14:41:26.651Z,26.27
2019-03-22T14:43:55.246Z,27.80
2019-03-22T14:46:23.858Z,24.23
2019-03-22T14:48:52.466Z,26.60
2019-03-22T14:51:21.125Z,26.80
2019-03-22T14:53:49.734Z,24.83
2019-03-22T14:56:18.377Z,26.93
2019-03-22T14:58:47.016Z,27.70
2019-03-22T15:01:15.767Z,27.10
2019-03-22T15:03:44.360Z,24.13
2019-03-22T15:06:12.954Z,21.53
2019-03-22T15:08:41.662Z,18.97
2019-03-22T15:11:10.614Z,15.57
2019-03-22T15:13:48.843Z,11.70
2019-03-22T15:16:48.363Z,14.20
2019-03-22T15:19:54.378Z,12.97
2019-03-22T15:22:41.211Z,13.10
2019-03-22T15:25:28.125Z,12.00
2019-03-22T15:28:19.168Z,13.50
2019-03-22T15:31:06.097Z,11.70
2019-03-22T15:33:54.201Z,10.30
2019-03-22T15:37:00.615Z,9.47
2019-03-22T15:39:48.879Z,13.47
2019-03-22T15:42:18.206Z,11.37
2019-03-22T15:44:47.219Z,13.87
2019-03-22T15:47:16.755Z,12.80
2019-03-22T15:49:45.811Z,12.77
2019-03-22T15:52:15.398Z,16.17
2019-03-22T15:54:44.530Z,17.13
2019-03-22T15:57:13.499Z,18.87
2019-03-22T15:59:42.522Z,22.77
2019-03-22T16:02:11.655Z,20.40
2019-03-22T16:04:40.753Z,18.73
2019-03-22T16:07:10.364Z,19.87
2019-03-22T16:09:39.428Z,17.77
2019-03-22T16:12:08.573Z,14.30
2019-03-22T16:14:38.046Z,21.57
2019-03-22T16:17:07.471Z,11.67
2019-03-22T16:19:36.522Z,14.53
2019-03-22T16:22:06.041Z,10.43
2019-03-22T16:24:35.247Z,11.67
2019-03-22T16:27:04.664Z,12.27
2019-03-22T16:29:33.635Z,8.17
2019-03-22T16:32:02.660Z,10.20
2019-03-22T16:34:31.672Z,10.27
2019-03-22T16:37:00.986Z,11.23
2019-03-22T16:39:30.504Z,9.40
2019-03-22T16:42:00.736Z,9.77
2019-03-22T16:44:30.329Z,11.87
2019-03-22T16:46:59.891Z,10.93
2019-03-22T16:49:28.907Z,10.57
2019-03-22T16:51:58.264Z,9.93
2019-03-22T16:54:27.272Z,12.90
2019-03-22T16:56:56.462Z,13.97
2019-03-22T16:59:25.594Z,16.20
2019-03-22T17:01:54.544Z,12.27
2019-03-22T17:04:23.567Z,11.80
2019-03-22T17:06:52.615Z,12.07
2019-03-22T17:09:21.652Z,14.63
2019-03-22T17:11:50.663Z,15.80
2019-03-22T17:14:21.804Z,14.37
2019-03-22T17:16:51.455Z,16.73
2019-03-22T17:19:20.884Z,14.53
2019-03-22T17:21:49.958Z,14.93
2019-03-22T17:24:19.534Z,11.23
2019-03-22T17:26:48.954Z,11.77
2019-03-22T17:29:18.016Z,12.77
2019-03-22T17:31:47.778Z,10.60
2019-03-22T17:34:17.530Z,13.70
2019-03-22T17:36:46.559Z,12.10
2019-03-22T17:39:17.407Z,13.90
2019-03-22T17:41:46.672Z,12.20
2019-03-22T17:44:15.995Z,12.27
2019-03-22T17:46:45.320Z,11.87
2019-03-22T17:49:14.424Z,11.93
2019-03-22T17:51:43.802Z,12.33
2019-03-22T17:54:12.907Z,9.03
2019-03-22T17:56:41.849Z,11.27
2019-03-22T17:59:10.883Z,11.43
2019-03-22T18:01:39.911Z,22.10
2019-03-22T18:04:09.078Z,12.37
2019-03-22T18:06:38.542Z,12.87
2019-03-22T18:09:07.628Z,11.73
2019-03-22T18:11:36.615Z,13.73
2019-03-22T18:14:06.028Z,11.33
2019-03-22T18:16:35.074Z,14.23
2019-03-22T18:19:04.138Z,11.27
2019-03-22T18:21:33.135Z,13.53
2019-03-22T18:24:02.445Z,13.37
2019-03-22T18:26:31.763Z,12.70
2019-03-22T18:29:00.811Z,13.77
2019-03-22T18:31:29.836Z,13.93
2019-03-22T18:34:00.425Z,13.00
2019-03-22T18:36:29.846Z,11.30
2019-03-22T18:38:58.905Z,14.00
2019-03-22T18:41:27.920Z,9.73
2019-03-22T18:43:56.964Z,12.30
2019-03-22T18:46:26.359Z,12.83
2019-03-22T18:48:55.405Z,11.80
2019-03-22T18:51:24.483Z,13.03
2019-03-22T18:53:53.843Z,12.83
2019-03-22T18:56:23.456Z,9.73
2019-03-22T18:58:52.790Z,14.30
2019-03-22T19:01:21.740Z,12.87
2019-03-22T19:03:51.342Z,12.13
2019-03-22T19:06:21.865Z,17.23
2019-03-22T19:08:51.028Z,11.40
2019-03-22T19:11:20.015Z,14.50
2019-03-22T19:13:49.117Z,13.03
2019-03-22T19:16:18.464Z,11.57
2019-03-22T19:18:48.066Z,11.60
2019-03-22T19:21:17.124Z,12.53
2019-03-22T19:23:46.164Z,13.67
2019-03-22T19:26:15.182Z,12.37
2019-03-22T19:28:44.211Z,13.37
2019-03-22T19:31:13.237Z,15.63
2019-03-22T19:33:42.272Z,14.10
2019-03-22T19:36:11.675Z,15.77
2019-03-22T19:38:40.754Z,15.80
2019-03-22T19:41:10.026Z,15.10
2019-03-22T19:43:38.978Z,13.93
2019-03-22T19:46:08.965Z,14.57
2019-03-22T19:48:38.322Z,18.80
2019-03-22T19:51:07.812Z,17.27
2019-03-22T19:53:37.242Z,16.47
2019-03-22T19:56:06.437Z,15.57
2019-03-22T19:58:35.722Z,17.13
2019-03-22T20:01:05.242Z,17.63
2019-03-22T20:03:34.246Z,25.73
2019-03-22T20:06:03.583Z,17.63
2019-03-22T20:08:32.778Z,15.73
2019-03-22T20:11:02.002Z,18.40
2019-03-22T20:13:31.398Z,18.43
2019-03-22T20:16:00.592Z,15.87
2019-03-22T20:18:30.350Z,17.57
2019-03-22T20:20:59.399Z,18.53
2019-03-22T20:23:28.555Z,19.00
2019-03-22T20:25:57.690Z,22.23
2019-03-22T20:28:26.674Z,19.10
2019-03-22T20:30:56.021Z,21.37
2019-03-22T20:33:25.196Z,19.50
2019-03-22T20:35:54.097Z,17.90
2019-03-22T20:38:23.319Z,19.20
2019-03-22T20:40:52.434Z,18.07
2019-03-22T20:43:21.958Z,21.93
2019-03-22T20:45:51.177Z,21.77
2019-03-22T20:48:20.299Z,19.70
2019-03-22T20:50:49.531Z,18.60
2019-03-22T20:53:19.259Z,19.73
2019-03-22T20:55:48.688Z,21.93
2019-03-22T20:58:18.116Z,19.87
2019-03-22T21:00:47.918Z,19.73
2019-03-22T21:03:17.534Z,18.03
2019-03-22T21:05:47.017Z,18.40
2019-03-22T21:08:16.515Z,18.87
2019-03-22T21:10:45.488Z,21.87
2019-03-22T21:13:14.874Z,16.57
2019-03-22T21:15:44.112Z,19.00
2019-03-22T21:18:13.405Z,20.07
2019-03-22T21:20:42.563Z,21.70
2019-03-22T21:23:11.759Z,19.43
2019-03-22T21:25:41.222Z,21.73
2019-03-22T21:28:10.247Z,21.17
2019-03-22T21:30:39.535Z,21.63
2019-03-22T21:33:08.851Z,21.00
2019-03-22T21:35:38.274Z,23.67
2019-03-22T21:38:11.149Z,22.47
2019-03-22T21:40:38.687Z,26.90
2019-03-22T21:43:07.914Z,21.60
2019-03-22T21:45:37.305Z,26.43
2019-03-22T21:48:06.403Z,22.43
2019-03-22T21:50:35.613Z,22.17
2019-03-22T21:53:04.711Z,23.20
2019-03-22T21:55:33.378Z,23.40
2019-03-22T21:58:02.596Z,23.63
2019-03-22T22:00:31.561Z,21.90
2019-03-22T22:03:00.587Z,24.30
2019-03-22T22:05:29.607Z,23.83
2019-03-22T22:07:58.644Z,24.63
2019-03-22T22:10:28.225Z,22.27
2019-03-22T22:12:57.755Z,21.97
2019-03-22T22:15:26.766Z,25.13
2019-03-22T22:17:56.010Z,22.93
2019-03-22T22:20:28.958Z,22.23
2019-03-22T22:22:56.123Z,23.17
2019-03-22T22:25:25.545Z,22.13
2019-03-22T22:27:55.174Z,23.20
2019-03-22T22:30:24.745Z,24.67
2019-03-22T22:32:54.208Z,19.00
2019-03-22T22:35:22.799Z,23.17
2019-03-22T22:37:52.083Z,22.27
2019-03-22T22:40:21.405Z,22.00
2019-03-22T22:42:50.735Z,19.83
2019-03-22T22:45:19.322Z,23.20
2019-03-22T22:47:48.590Z,18.77
2019-03-22T22:50:17.646Z,19.57
2019-03-22T22:52:47.234Z,19.80
2019-03-22T22:55:16.293Z,20.53
2019-03-22T22:57:45.329Z,20.37
2019-03-22T23:00:15.360Z,24.70
2019-03-22T23:02:45.226Z,21.37
2019-03-22T23:05:14.555Z,21.80
2019-03-22T23:07:44.166Z,18.53
2019-03-22T23:10:13.534Z,18.77
2019-03-22T23:12:43.209Z,16.87
2019-03-22T23:15:12.565Z,19.03
2019-03-22T23:17:41.482Z,16.13
2019-03-22T23:20:10.975Z,23.40
2019-03-22T23:22:39.986Z,21.60
2019-03-22T23:25:09.346Z,20.53
2019-03-22T23:27:38.401Z,17.43
2019-03-22T23:30:07.766Z,20.07
2019-03-22T23:32:36.838Z,17.93
2019-03-22T23:35:07.230Z,23.23
2019-03-22T23:37:36.570Z,20.93
2019-03-22T23:40:06.469Z,21.53
2019-03-22T23:42:35.516Z,20.17
2019-03-22T23:45:04.562Z,21.33
2019-03-22T23:47:33.458Z,18.33
2019-03-22T23:50:02.707Z,22.40
2019-03-22T23:52:31.691Z,18.27
2019-03-22T23:55:00.699Z,22.90
2019-03-22T23:57:30.075Z,21.37
2019-03-22T23:59:59.126Z,23.60
